Weather at Pirin Airfield [CLOSED]

Public forecast

Using degrees Celsius for public forecast. Weather courtesy of forecast.io.

Closest aviation weather report (METAR) to Pirin Airfield

Closest report is Kavala Alexander the Great International Airport, 54.9 nm (101.6 km) SE.

2024/06/14 14:50 (retrieved 32 minutes ago)

LGKV 141450Z 10012KT 9999 FEW035 29/15 Q1007

Closest aviation forecast (TAF) to Pirin Airfield

Closest forecast is Kavala Alexander the Great International Airport, 54.9 nm (101.6 km) SE.

2024/06/14 12:12 (retrieved 3 hours ago)

TAF LGKV 141100Z 1412/1512 27012KT 9999 FEW030 SCT080